Time;durP1;ratioP1;P1;durP2;ratioP2;P2;SDS_P1;SDS_P2;PMS_P1;PMS_P2;Temp;Humidity;BMP_temperature;BMP_pressure;BME280_temperature;BME280_humidity;BME280_pressure;Samples;Min_cycle;Max_cycle;Signal;HPM_P1;HPM_P2
2023/09/22 00:06:38;;;;;;;6.2;3.3;;;;;;;16.22;79.4;;;;;
2023/09/22 00:17:38;;;;;;;6.2;3.3;;;;;;;16.05;81.15;;;;;
2023/09/22 00:27:38;;;;;;;6.2;3.3;;;;;;;15.91;80.94;;;;;
2023/09/22 00:37:40;;;;;;;7.5;4;;;;;;;16.11;81.7;;;;;
2023/09/22 00:48:38;;;;;;;7.5;4;;;;;;;16.29;81.88;;;;;
2023/09/22 00:58:38;;;;;;;7.5;4;;;;;;;16.41;81.42;;;;;
2023/09/22 01:08:38;;;;;;;7;3.2;;;;;;;16.52;80.91;;;;;
2023/09/22 01:19:38;;;;;;;7;3.2;;;;;;;16.61;80.51;;;;;
2023/09/22 01:29:40;;;;;;;7;3.2;;;;;;;16.55;81.62;;;;;
2023/09/22 01:39:38;;;;;;;6.8;3.6;;;;;;;16.35;82.3;;;;;
2023/09/22 01:50:38;;;;;;;6.8;3.6;;;;;;;16.34;82.16;;;;;
2023/09/22 02:00:38;;;;;;;6.8;3.6;;;;;;;16.4;82.51;;;;;
2023/09/22 02:11:40;;;;;;;7.4;3.7;;;;;;;16.44;82.36;;;;;
2023/09/22 02:22:38;;;;;;;7.4;3.7;;;;;;;16.54;82.12;;;;;
2023/09/22 02:33:38;;;;;;;7.2;3.8;;;;;;;16.72;81.39;;;;;
2023/09/22 02:44:38;;;;;;;7.2;3.8;;;;;;;16.68;81.43;;;;;
2023/09/22 02:54:38;;;;;;;7.2;3.8;;;;;;;16.63;81.14;;;;;
2023/09/22 03:05:38;;;;;;;8;4.3;;;;;;;16.36;81.94;;;;;
2023/09/22 03:16:38;;;;;;;8;4.3;;;;;;;16.12;83.01;;;;;
2023/09/22 03:26:38;;;;;;;8;4.3;;;;;;;16.17;82.47;;;;;
2023/09/22 03:36:41;;;;;;;12;4.6;;;;;;;15.98;84.25;;;;;
2023/09/22 03:46:38;;;;;;;12;4.6;;;;;;;15.97;84.09;;;;;
2023/09/22 03:56:38;;;;;;;12;4.6;;;;;;;15.95;84.28;;;;;
2023/09/22 04:07:38;;;;;;;8.2;5.2;;;;;;;15.98;84.83;;;;;
2023/09/22 04:18:38;;;;;;;8.2;5.2;;;;;;;16;85.05;;;;;
2023/09/22 04:29:38;;;;;;;8.2;5.2;;;;;;;15.98;84.85;;;;;
2023/09/22 04:40:38;;;;;;;10.7;7.9;;;;;;;15.97;85.1;;;;;
2023/09/22 04:51:38;;;;;;;10.7;7.9;;;;;;;16;85.63;;;;;
2023/09/22 05:02:38;;;;;;;;;;;;;;;;;;;;;
2023/09/22 05:12:38;;;;;;;9.6;6.3;;;;;;;16.24;85.43;;;;;
2023/09/22 05:23:38;;;;;;;9.6;6.3;;;;;;;16.52;85.27;;;;;
2023/09/22 05:34:39;;;;;;;9.2;6.2;;;;;;;17.06;84.49;;;;;
2023/09/22 05:45:38;;;;;;;;;;;;;;;;;;;;;
2023/09/22 05:55:38;;;;;;;9.2;6.2;;;;;;;18.06;81.44;;;;;
2023/09/22 06:05:39;;;;;;;11.9;5.9;;;;;;;18.46;81.66;;;;;
2023/09/22 06:16:38;;;;;;;11.9;5.9;;;;;;;18.77;79.46;;;;;
2023/09/22 06:26:38;;;;;;;11.9;5.9;;;;;;;19.17;79.15;;;;;
2023/09/22 06:37:39;;;;;;;11.2;5.7;;;;;;;19.25;78.48;;;;;
2023/09/22 06:48:38;;;;;;;11.2;5.7;;;;;;;19.57;77.47;;;;;
2023/09/22 06:58:40;;;;;;;11.2;5.7;;;;;;;19.95;76.53;;;;;
2023/09/22 07:08:38;;;;;;;10.8;6.1;;;;;;;20.59;75.21;;;;;
2023/09/22 07:19:39;;;;;;;10.8;6.1;;;;;;;21.26;75.01;;;;;
2023/09/22 07:30:38;;;;;;;10.8;6.1;;;;;;;22.01;69.43;;;;;
2023/09/22 07:40:38;;;;;;;7;4.4;;;;;;;22.62;65.95;;;;;
2023/09/22 07:50:39;;;;;;;7;4.4;;;;;;;22.6;65.75;;;;;
2023/09/22 08:00:42;;;;;;;7;4.4;;;;;;;22.97;64.79;;;;;
2023/09/22 08:11:38;;;;;;;8.1;4.1;;;;;;;23.2;64.55;;;;;
2023/09/22 08:21:38;;;;;;;8.1;4.1;;;;;;;23.61;64.47;;;;;
2023/09/22 08:32:39;;;;;;;7.2;3.9;;;;;;;24.21;61.71;;;;;
2023/09/22 08:43:38;;;;;;;7.2;3.9;;;;;;;24.65;60.23;;;;;
2023/09/22 08:53:38;;;;;;;7.2;3.9;;;;;;;24.52;59.32;;;;;
2023/09/22 09:04:39;;;;;;;5.6;2.8;;;;;;;24.05;60.09;;;;;
2023/09/22 09:14:38;;;;;;;5.6;2.8;;;;;;;24.59;60.05;;;;;
2023/09/22 09:24:38;;;;;;;5.6;2.8;;;;;;;24.95;60.07;;;;;
2023/09/22 09:34:39;;;;;;;7.5;2.4;;;;;;;24.95;58.62;;;;;
2023/09/22 09:45:39;;;;;;;7.5;2.4;;;;;;;25.4;57.47;;;;;
2023/09/22 09:55:38;;;;;;;7.5;2.4;;;;;;;25.59;59.38;;;;;
2023/09/22 10:06:38;;;;;;;6.3;2.2;;;;;;;25.72;56.43;;;;;
2023/09/22 10:16:38;;;;;;;6.3;2.2;;;;;;;26.06;57.32;;;;;
2023/09/22 10:26:39;;;;;;;6.3;2.2;;;;;;;26.16;57.6;;;;;
2023/09/22 10:37:38;;;;;;;4.8;2.1;;;;;;;26.51;53.35;;;;;
2023/09/22 10:48:38;;;;;;;4.8;2.1;;;;;;;26.35;54.19;;;;;
2023/09/22 10:59:38;;;;;;;4.8;2.1;;;;;;;26.44;53.71;;;;;
2023/09/22 11:10:39;;;;;;;6.1;2.3;;;;;;;26.4;53.15;;;;;
2023/09/22 11:21:38;;;;;;;6.1;2.3;;;;;;;26.58;54.98;;;;;
2023/09/22 11:32:38;;;;;;;4.2;1.8;;;;;;;26.39;53.9;;;;;
2023/09/22 11:43:38;;;;;;;4.2;1.8;;;;;;;26.1;55.19;;;;;
2023/09/22 11:54:38;;;;;;;4.2;1.8;;;;;;;26.16;53.9;;;;;
2023/09/22 12:04:38;;;;;;;6.4;2;;;;;;;26.2;54.99;;;;;
2023/09/22 12:15:38;;;;;;;6.4;2;;;;;;;26.4;55.66;;;;;
2023/09/22 12:25:38;;;;;;;6.4;2;;;;;;;26.19;53.57;;;;;
2023/09/22 12:35:39;;;;;;;4.4;1.8;;;;;;;25.55;54.06;;;;;
2023/09/22 12:45:39;;;;;;;4.4;1.8;;;;;;;25.5;56.17;;;;;
2023/09/22 12:55:38;;;;;;;4.4;1.8;;;;;;;25.29;56.38;;;;;
2023/09/22 13:06:40;;;;;;;6.6;1.9;;;;;;;25.71;56.42;;;;;
2023/09/22 13:16:39;;;;;;;6.6;1.9;;;;;;;25.95;57.22;;;;;
2023/09/22 13:26:38;;;;;;;6.6;1.9;;;;;;;26.25;56.32;;;;;
2023/09/22 13:36:38;;;;;;;4.9;2.4;;;;;;;25.99;54.48;;;;;
2023/09/22 13:47:39;;;;;;;4.9;2.4;;;;;;;25.81;56.37;;;;;
2023/09/22 13:57:38;;;;;;;4.9;2.4;;;;;;;26.28;56.68;;;;;
2023/09/22 14:07:39;;;;;;;7.4;3.6;;;;;;;26.53;56.56;;;;;
2023/09/22 14:18:38;;;;;;;7.4;3.6;;;;;;;26.44;57.02;;;;;
2023/09/22 14:28:38;;;;;;;7.4;3.6;;;;;;;25.84;56.05;;;;;
2023/09/22 14:39:38;;;;;;;6.2;3.2;;;;;;;25.2;56.91;;;;;
2023/09/22 14:49:38;;;;;;;6.2;3.2;;;;;;;25.23;57.88;;;;;
2023/09/22 14:59:38;;;;;;;6.2;3.2;;;;;;;24.78;58.06;;;;;
2023/09/22 15:10:38;;;;;;;6.3;3;;;;;;;24.37;60.33;;;;;
2023/09/22 15:20:38;;;;;;;6.3;3;;;;;;;23.87;61.47;;;;;
2023/09/22 15:30:39;;;;;;;6.3;3;;;;;;;23.41;62.55;;;;;
2023/09/22 15:41:38;;;;;;;6.3;2.9;;;;;;;23.03;63.56;;;;;
2023/09/22 15:52:38;;;;;;;6.3;2.9;;;;;;;22.9;64.85;;;;;
2023/09/22 16:02:38;;;;;;;7;3.2;;;;;;;22.82;63.72;;;;;
2023/09/22 16:12:39;;;;;;;7;3.2;;;;;;;22.58;64.15;;;;;
2023/09/22 16:22:38;;;;;;;7;3.2;;;;;;;22.35;65.04;;;;;
2023/09/22 16:32:39;;;;;;;8.5;4.1;;;;;;;22.15;65.42;;;;;
2023/09/22 16:43:40;;;;;;;8.5;4.1;;;;;;;21.93;65.86;;;;;
2023/09/22 16:53:39;;;;;;;8.5;4.1;;;;;;;21.72;67.4;;;;;
2023/09/22 17:04:39;;;;;;;11.6;4.3;;;;;;;21.48;67.73;;;;;
2023/09/22 17:15:38;;;;;;;11.6;4.3;;;;;;;21.33;69.15;;;;;
2023/09/22 17:26:39;;;;;;;11.6;4.3;;;;;;;21.18;70.4;;;;;
2023/09/22 17:37:39;;;;;;;9.5;5.8;;;;;;;21.04;72.27;;;;;
2023/09/22 17:47:39;;;;;;;9.5;5.8;;;;;;;20.9;71.82;;;;;
2023/09/22 17:58:38;;;;;;;9.5;5.8;;;;;;;20.86;71.97;;;;;
2023/09/22 18:08:39;;;;;;;9;5.3;;;;;;;20.77;72.36;;;;;
2023/09/22 18:19:39;;;;;;;9;5.3;;;;;;;20.66;72.86;;;;;
2023/09/22 18:29:40;;;;;;;9;5.3;;;;;;;20.56;73.41;;;;;
2023/09/22 18:40:39;;;;;;;9.7;5.2;;;;;;;20.46;74.19;;;;;
2023/09/22 18:51:38;;;;;;;9.7;5.2;;;;;;;20.43;73.79;;;;;
2023/09/22 19:01:38;;;;;;;9.7;5.2;;;;;;;20.5;73.45;;;;;
2023/09/22 19:12:41;;;;;;;10.4;6;;;;;;;20.65;72.84;;;;;
2023/09/22 19:23:40;;;;;;;10.4;6;;;;;;;20.7;73.08;;;;;
2023/09/22 19:33:39;;;;;;;11.7;6.4;;;;;;;20.73;72.7;;;;;
2023/09/22 19:43:39;;;;;;;11.7;6.4;;;;;;;20.61;72.64;;;;;
2023/09/22 19:54:39;;;;;;;11.7;6.4;;;;;;;20.75;72.09;;;;;
2023/09/22 20:04:39;;;;;;;11.6;6;;;;;;;20.8;71.82;;;;;
2023/09/22 20:15:39;;;;;;;11.6;6;;;;;;;20.8;72.09;;;;;
2023/09/22 20:26:39;;;;;;;11.6;6;;;;;;;20.75;71.87;;;;;
2023/09/22 20:36:38;;;;;;;17.4;7.5;;;;;;;20.29;74.29;;;;;
2023/09/22 20:46:41;;;;;;;17.4;7.5;;;;;;;19.95;75.36;;;;;
2023/09/22 20:56:39;;;;;;;17.4;7.5;;;;;;;19.66;76.26;;;;;
2023/09/22 21:07:39;;;;;;;13;8.3;;;;;;;19.38;77.13;;;;;
2023/09/22 21:17:39;;;;;;;13;8.3;;;;;;;19.18;77.54;;;;;
2023/09/22 21:28:40;;;;;;;13;8.3;;;;;;;19.01;78.17;;;;;
2023/09/22 21:38:39;;;;;;;14.5;8.8;;;;;;;18.95;78.77;;;;;
2023/09/22 21:48:39;;;;;;;14.5;8.8;;;;;;;18.94;79.42;;;;;
2023/09/22 21:59:39;;;;;;;14.5;8.8;;;;;;;18.82;79.78;;;;;
2023/09/22 22:09:39;;;;;;;12.5;8.8;;;;;;;18.76;80.48;;;;;
2023/09/22 22:20:39;;;;;;;12.5;8.8;;;;;;;19.2;79.5;;;;;
2023/09/22 22:31:39;;;;;;;12.5;8.8;;;;;;;19.7;77.52;;;;;
2023/09/22 22:41:41;;;;;;;15.7;9.2;;;;;;;20;76.47;;;;;
2023/09/22 22:52:39;;;;;;;15.7;9.2;;;;;;;20.24;74.86;;;;;
2023/09/22 23:02:39;;;;;;;13.3;6.8;;;;;;;20.51;73.71;;;;;
2023/09/22 23:13:39;;;;;;;13.3;6.8;;;;;;;20.58;73.8;;;;;
2023/09/22 23:23:39;;;;;;;13.3;6.8;;;;;;;20.77;72.53;;;;;
2023/09/22 23:33:39;;;;;;;12.9;6.3;;;;;;;21.2;70.75;;;;;
2023/09/22 23:43:40;;;;;;;12.9;6.3;;;;;;;21.12;71.57;;;;;
2023/09/22 23:54:39;;;;;;;12.9;6.3;;;;;;;21.01;72.79;;;;;
